sensor_id;sensor_type;location;lat;lon;timestamp;temperature;humidity
285;DHT22;127;48.770;9.212;2022-12-18T00:00:11;-8.20;99.90
285;DHT22;127;48.770;9.212;2022-12-18T00:02:40;-8.20;99.90
285;DHT22;127;48.770;9.212;2022-12-18T00:05:09;-8.30;99.90
285;DHT22;127;48.770;9.212;2022-12-18T00:07:37;-8.20;99.90
285;DHT22;127;48.770;9.212;2022-12-18T00:10:07;-8.30;99.90
285;DHT22;127;48.770;9.212;2022-12-18T00:12:35;-8.20;99.90
285;DHT22;127;48.770;9.212;2022-12-18T00:15:05;-8.20;99.90
285;DHT22;127;48.770;9.212;2022-12-18T00:17:36;-8.20;99.90
285;DHT22;127;48.770;9.212;2022-12-18T00:20:06;-8.10;99.90
285;DHT22;127;48.770;9.212;2022-12-18T00:22:35;-8.10;99.90
285;DHT22;127;48.770;9.212;2022-12-18T00:25:04;-8.10;99.90
285;DHT22;127;48.770;9.212;2022-12-18T00:27:32;-8.20;99.90
285;DHT22;127;48.770;9.212;2022-12-18T00:30:01;-8.20;99.90
285;DHT22;127;48.770;9.212;2022-12-18T00:32:30;-8.10;99.90
285;DHT22;127;48.770;9.212;2022-12-18T00:35:01;-8.20;99.90
285;DHT22;127;48.770;9.212;2022-12-18T00:37:29;-8.20;99.90
285;DHT22;127;48.770;9.212;2022-12-18T00:39:58;-8.10;99.90
285;DHT22;127;48.770;9.212;2022-12-18T00:42:27;-8.10;99.90
285;DHT22;127;48.770;9.212;2022-12-18T00:45:08;-8.10;99.90
285;DHT22;127;48.770;9.212;2022-12-18T00:47:37;-8.10;99.90
285;DHT22;127;48.770;9.212;2022-12-18T00:50:09;-8.10;99.90
285;DHT22;127;48.770;9.212;2022-12-18T00:52:41;-8.20;99.90
285;DHT22;127;48.770;9.212;2022-12-18T00:55:10;-8.30;99.90
285;DHT22;127;48.770;9.212;2022-12-18T00:57:39;-8.20;99.90
285;DHT22;127;48.770;9.212;2022-12-18T01:00:11;-8.20;99.90
285;DHT22;127;48.770;9.212;2022-12-18T01:02:41;-8.30;99.90
285;DHT22;127;48.770;9.212;2022-12-18T01:05:13;-8.40;99.90
285;DHT22;127;48.770;9.212;2022-12-18T01:07:41;-8.40;99.90
285;DHT22;127;48.770;9.212;2022-12-18T01:10:11;-8.40;99.90
285;DHT22;127;48.770;9.212;2022-12-18T01:12:40;-8.30;99.90
285;DHT22;127;48.770;9.212;2022-12-18T01:15:10;-8.30;99.90
285;DHT22;127;48.770;9.212;2022-12-18T01:17:40;-8.30;99.90
285;DHT22;127;48.770;9.212;2022-12-18T01:20:12;-8.30;99.90
285;DHT22;127;48.770;9.212;2022-12-18T01:22:41;-8.20;99.90
285;DHT22;127;48.770;9.212;2022-12-18T01:25:10;-8.20;99.90
285;DHT22;127;48.770;9.212;2022-12-18T01:27:38;-8.20;99.90
285;DHT22;127;48.770;9.212;2022-12-18T01:30:08;-8.20;99.90
285;DHT22;127;48.770;9.212;2022-12-18T01:32:37;-8.10;99.90
285;DHT22;127;48.770;9.212;2022-12-18T01:35:07;-8.20;99.90
285;DHT22;127;48.770;9.212;2022-12-18T01:37:38;-8.10;99.90
285;DHT22;127;48.770;9.212;2022-12-18T01:40:08;-8.10;99.90
285;DHT22;127;48.770;9.212;2022-12-18T01:42:37;-8.10;99.90
285;DHT22;127;48.770;9.212;2022-12-18T01:45:22;-8.10;99.90
285;DHT22;127;48.770;9.212;2022-12-18T01:47:54;-8.10;99.90
285;DHT22;127;48.770;9.212;2022-12-18T01:50:27;-8.00;99.90
285;DHT22;127;48.770;9.212;2022-12-18T01:53:02;-8.00;99.90
285;DHT22;127;48.770;9.212;2022-12-18T01:55:35;-8.00;99.90
285;DHT22;127;48.770;9.212;2022-12-18T01:58:05;-8.00;99.90
285;DHT22;127;48.770;9.212;2022-12-18T02:00:34;-7.80;99.90
285;DHT22;127;48.770;9.212;2022-12-18T02:03:02;-7.80;99.90
285;DHT22;127;48.770;9.212;2022-12-18T02:05:42;-7.80;99.90
285;DHT22;127;48.770;9.212;2022-12-18T02:08:20;-7.80;99.90
285;DHT22;127;48.770;9.212;2022-12-18T02:10:56;-7.70;99.90
285;DHT22;127;48.770;9.212;2022-12-18T02:13:35;-7.70;99.90
285;DHT22;127;48.770;9.212;2022-12-18T02:16:11;-7.80;99.90
285;DHT22;127;48.770;9.212;2022-12-18T02:18:45;-7.80;99.90
285;DHT22;127;48.770;9.212;2022-12-18T02:21:25;-7.80;99.90
285;DHT22;127;48.770;9.212;2022-12-18T02:24:10;-7.70;99.90
285;DHT22;127;48.770;9.212;2022-12-18T02:26:47;-7.70;99.90
285;DHT22;127;48.770;9.212;2022-12-18T02:29:22;-7.70;99.90
285;DHT22;127;48.770;9.212;2022-12-18T02:31:54;-7.70;99.90
285;DHT22;127;48.770;9.212;2022-12-18T02:34:28;-7.60;99.90
285;DHT22;127;48.770;9.212;2022-12-18T02:36:59;-7.60;99.90
285;DHT22;127;48.770;9.212;2022-12-18T02:39:29;-7.60;99.90
285;DHT22;127;48.770;9.212;2022-12-18T02:42:02;-7.60;99.90
285;DHT22;127;48.770;9.212;2022-12-18T02:44:33;-7.60;99.90
285;DHT22;127;48.770;9.212;2022-12-18T02:47:02;-7.60;99.90
285;DHT22;127;48.770;9.212;2022-12-18T02:49:36;-7.60;99.90
285;DHT22;127;48.770;9.212;2022-12-18T02:52:15;-7.50;99.90
285;DHT22;127;48.770;9.212;2022-12-18T02:54:54;-7.70;99.90
285;DHT22;127;48.770;9.212;2022-12-18T02:57:33;-7.70;99.90
285;DHT22;127;48.770;9.212;2022-12-18T03:00:06;-7.70;99.90
285;DHT22;127;48.770;9.212;2022-12-18T03:02:40;-7.80;99.90
285;DHT22;127;48.770;9.212;2022-12-18T03:05:14;-7.80;99.90
285;DHT22;127;48.770;9.212;2022-12-18T03:07:47;-7.90;99.90
285;DHT22;127;48.770;9.212;2022-12-18T03:10:21;-8.00;99.90
285;DHT22;127;48.770;9.212;2022-12-18T03:12:58;-8.10;99.90
285;DHT22;127;48.770;9.212;2022-12-18T03:15:31;-8.20;99.90
285;DHT22;127;48.770;9.212;2022-12-18T03:18:06;-8.20;99.90
285;DHT22;127;48.770;9.212;2022-12-18T03:20:37;-8.20;99.90
285;DHT22;127;48.770;9.212;2022-12-18T03:23:11;-8.30;99.90
285;DHT22;127;48.770;9.212;2022-12-18T03:25:43;-8.30;99.90
285;DHT22;127;48.770;9.212;2022-12-18T03:28:18;-8.50;99.90
285;DHT22;127;48.770;9.212;2022-12-18T03:30:52;-8.50;99.90
285;DHT22;127;48.770;9.212;2022-12-18T03:33:26;-8.60;99.90
285;DHT22;127;48.770;9.212;2022-12-18T03:35:56;-8.60;99.90
285;DHT22;127;48.770;9.212;2022-12-18T03:38:25;-8.60;99.90
285;DHT22;127;48.770;9.212;2022-12-18T03:41:00;-8.60;99.90
285;DHT22;127;48.770;9.212;2022-12-18T03:43:41;-8.60;99.90
285;DHT22;127;48.770;9.212;2022-12-18T03:46:15;-8.70;99.90
285;DHT22;127;48.770;9.212;2022-12-18T03:48:49;-8.90;99.90
285;DHT22;127;48.770;9.212;2022-12-18T03:51:25;-9.00;99.90
285;DHT22;127;48.770;9.212;2022-12-18T03:53:58;-9.10;99.90
285;DHT22;127;48.770;9.212;2022-12-18T03:56:30;-9.10;99.90
285;DHT22;127;48.770;9.212;2022-12-18T03:59:04;-9.10;99.90
285;DHT22;127;48.770;9.212;2022-12-18T04:01:37;-9.10;99.90
285;DHT22;127;48.770;9.212;2022-12-18T04:04:08;-9.10;99.90
285;DHT22;127;48.770;9.212;2022-12-18T04:06:39;-9.10;99.90
285;DHT22;127;48.770;9.212;2022-12-18T04:09:09;-9.10;99.90
285;DHT22;127;48.770;9.212;2022-12-18T04:11:38;-9.20;99.90
285;DHT22;127;48.770;9.212;2022-12-18T04:14:12;-9.20;99.90
285;DHT22;127;48.770;9.212;2022-12-18T04:16:40;-9.20;99.90
285;DHT22;127;48.770;9.212;2022-12-18T04:19:09;-9.20;99.90
285;DHT22;127;48.770;9.212;2022-12-18T04:21:38;-9.20;99.90
285;DHT22;127;48.770;9.212;2022-12-18T04:24:07;-9.30;99.90
285;DHT22;127;48.770;9.212;2022-12-18T04:26:35;-9.40;99.90
285;DHT22;127;48.770;9.212;2022-12-18T04:29:04;-9.40;99.90
285;DHT22;127;48.770;9.212;2022-12-18T04:31:35;-9.50;99.90
285;DHT22;127;48.770;9.212;2022-12-18T04:34:04;-9.50;99.90
285;DHT22;127;48.770;9.212;2022-12-18T04:36:32;-9.50;99.90
285;DHT22;127;48.770;9.212;2022-12-18T04:39:01;-9.50;99.90
285;DHT22;127;48.770;9.212;2022-12-18T04:41:29;-9.50;99.90
285;DHT22;127;48.770;9.212;2022-12-18T04:43:58;-9.50;99.90
285;DHT22;127;48.770;9.212;2022-12-18T04:46:27;-9.50;99.90
285;DHT22;127;48.770;9.212;2022-12-18T04:48:58;-9.50;99.90
285;DHT22;127;48.770;9.212;2022-12-18T04:51:26;-9.50;99.90
285;DHT22;127;48.770;9.212;2022-12-18T04:53:55;-9.60;99.90
285;DHT22;127;48.770;9.212;2022-12-18T04:56:23;-9.60;99.90
285;DHT22;127;48.770;9.212;2022-12-18T04:58:52;-9.60;99.90
285;DHT22;127;48.770;9.212;2022-12-18T05:01:21;-9.60;99.90
285;DHT22;127;48.770;9.212;2022-12-18T05:03:51;-9.60;99.90
285;DHT22;127;48.770;9.212;2022-12-18T05:06:22;-9.60;99.90
285;DHT22;127;48.770;9.212;2022-12-18T05:08:51;-9.60;99.90
285;DHT22;127;48.770;9.212;2022-12-18T05:11:19;-9.60;99.90
285;DHT22;127;48.770;9.212;2022-12-18T05:13:49;-9.70;99.90
285;DHT22;127;48.770;9.212;2022-12-18T05:16:17;-9.80;99.90
285;DHT22;127;48.770;9.212;2022-12-18T05:18:46;-9.90;99.90
285;DHT22;127;48.770;9.212;2022-12-18T05:21:15;-9.90;99.90
285;DHT22;127;48.770;9.212;2022-12-18T05:23:46;-10.00;99.90
285;DHT22;127;48.770;9.212;2022-12-18T05:26:17;-10.00;99.90
285;DHT22;127;48.770;9.212;2022-12-18T05:28:45;-10.10;99.90
285;DHT22;127;48.770;9.212;2022-12-18T05:31:14;-10.10;99.90
285;DHT22;127;48.770;9.212;2022-12-18T05:33:43;-10.10;99.90
285;DHT22;127;48.770;9.212;2022-12-18T05:36:11;-10.20;99.90
285;DHT22;127;48.770;9.212;2022-12-18T05:38:40;-10.30;99.90
285;DHT22;127;48.770;9.212;2022-12-18T05:41:11;-10.40;99.90
285;DHT22;127;48.770;9.212;2022-12-18T05:43:40;-10.30;99.90
285;DHT22;127;48.770;9.212;2022-12-18T05:46:13;-10.30;99.90
285;DHT22;127;48.770;9.212;2022-12-18T05:48:44;-10.30;99.90
285;DHT22;127;48.770;9.212;2022-12-18T05:51:15;-10.40;99.90
285;DHT22;127;48.770;9.212;2022-12-18T05:53:44;-10.40;99.90
285;DHT22;127;48.770;9.212;2022-12-18T05:56:19;-10.40;99.90
285;DHT22;127;48.770;9.212;2022-12-18T05:58:51;-10.40;99.90
285;DHT22;127;48.770;9.212;2022-12-18T06:01:22;-10.40;99.90
285;DHT22;127;48.770;9.212;2022-12-18T06:03:51;-10.40;99.90
285;DHT22;127;48.770;9.212;2022-12-18T06:06:22;-10.30;99.90
285;DHT22;127;48.770;9.212;2022-12-18T06:08:52;-10.30;99.90
285;DHT22;127;48.770;9.212;2022-12-18T06:11:25;-10.30;99.90
285;DHT22;127;48.770;9.212;2022-12-18T06:13:56;-10.30;99.90
285;DHT22;127;48.770;9.212;2022-12-18T06:16:24;-10.30;99.90
285;DHT22;127;48.770;9.212;2022-12-18T06:18:54;-10.30;99.90
285;DHT22;127;48.770;9.212;2022-12-18T06:21:24;-10.30;99.90
285;DHT22;127;48.770;9.212;2022-12-18T06:23:52;-10.40;99.90
285;DHT22;127;48.770;9.212;2022-12-18T06:26:24;-10.40;99.90
285;DHT22;127;48.770;9.212;2022-12-18T06:28:52;-10.30;99.90
285;DHT22;127;48.770;9.212;2022-12-18T06:31:21;-10.30;99.90
285;DHT22;127;48.770;9.212;2022-12-18T06:33:50;-10.30;99.90
285;DHT22;127;48.770;9.212;2022-12-18T06:36:18;-10.30;99.90
285;DHT22;127;48.770;9.212;2022-12-18T06:38:47;-10.30;99.90
285;DHT22;127;48.770;9.212;2022-12-18T06:41:17;-10.30;99.90
285;DHT22;127;48.770;9.212;2022-12-18T06:43:49;-10.30;99.90
285;DHT22;127;48.770;9.212;2022-12-18T06:46:17;-10.30;99.90
285;DHT22;127;48.770;9.212;2022-12-18T06:48:49;-10.30;99.90
285;DHT22;127;48.770;9.212;2022-12-18T06:51:19;-10.20;99.90
285;DHT22;127;48.770;9.212;2022-12-18T06:53:48;-10.20;99.90
285;DHT22;127;48.770;9.212;2022-12-18T06:56:17;-10.20;99.90
285;DHT22;127;48.770;9.212;2022-12-18T06:58:46;-10.20;99.90
285;DHT22;127;48.770;9.212;2022-12-18T07:01:17;-10.20;99.90
285;DHT22;127;48.770;9.212;2022-12-18T07:03:45;-10.20;99.90
285;DHT22;127;48.770;9.212;2022-12-18T07:06:16;-10.10;99.90
285;DHT22;127;48.770;9.212;2022-12-18T07:08:45;-10.10;99.90
285;DHT22;127;48.770;9.212;2022-12-18T07:11:15;-10.10;99.90
285;DHT22;127;48.770;9.212;2022-12-18T07:13:45;-10.10;99.90
285;DHT22;127;48.770;9.212;2022-12-18T07:16:18;-10.00;99.90
285;DHT22;127;48.770;9.212;2022-12-18T07:18:47;-10.10;99.90
285;DHT22;127;48.770;9.212;2022-12-18T07:21:20;-10.00;99.90
285;DHT22;127;48.770;9.212;2022-12-18T07:23:48;-9.90;99.90
285;DHT22;127;48.770;9.212;2022-12-18T07:26:19;-9.90;99.90
285;DHT22;127;48.770;9.212;2022-12-18T07:28:48;-9.70;99.90
285;DHT22;127;48.770;9.212;2022-12-18T07:31:20;-9.70;99.90
285;DHT22;127;48.770;9.212;2022-12-18T07:33:50;-9.60;99.90
285;DHT22;127;48.770;9.212;2022-12-18T07:36:19;-9.50;99.90
285;DHT22;127;48.770;9.212;2022-12-18T07:38:48;-9.40;99.90
285;DHT22;127;48.770;9.212;2022-12-18T07:41:18;-9.40;99.90
285;DHT22;127;48.770;9.212;2022-12-18T07:43:47;-9.30;99.90
285;DHT22;127;48.770;9.212;2022-12-18T07:46:19;-9.30;99.90
285;DHT22;127;48.770;9.212;2022-12-18T07:48:47;-9.20;99.90
285;DHT22;127;48.770;9.212;2022-12-18T07:51:17;-9.10;99.90
285;DHT22;127;48.770;9.212;2022-12-18T07:53:46;-9.10;99.90
285;DHT22;127;48.770;9.212;2022-12-18T07:56:14;-8.90;99.90
285;DHT22;127;48.770;9.212;2022-12-18T07:58:43;-8.80;99.90
285;DHT22;127;48.770;9.212;2022-12-18T08:01:12;-8.80;99.90
285;DHT22;127;48.770;9.212;2022-12-18T08:03:44;-8.80;99.90
285;DHT22;127;48.770;9.212;2022-12-18T08:06:12;-8.70;99.90
285;DHT22;127;48.770;9.212;2022-12-18T08:08:41;-8.60;99.90
285;DHT22;127;48.770;9.212;2022-12-18T08:11:09;-8.60;99.90
285;DHT22;127;48.770;9.212;2022-12-18T08:13:38;-8.50;99.90
285;DHT22;127;48.770;9.212;2022-12-18T08:16:07;-8.30;99.90
285;DHT22;127;48.770;9.212;2022-12-18T08:18:37;-8.20;99.90
285;DHT22;127;48.770;9.212;2022-12-18T08:21:13;-8.20;99.90
285;DHT22;127;48.770;9.212;2022-12-18T08:23:42;-8.10;99.90
285;DHT22;127;48.770;9.212;2022-12-18T08:26:11;-8.10;99.90
285;DHT22;127;48.770;9.212;2022-12-18T08:28:41;-8.10;99.90
285;DHT22;127;48.770;9.212;2022-12-18T08:31:09;-8.00;99.90
285;DHT22;127;48.770;9.212;2022-12-18T08:33:39;-7.90;99.90
285;DHT22;127;48.770;9.212;2022-12-18T08:36:11;-7.90;99.90
285;DHT22;127;48.770;9.212;2022-12-18T08:38:40;-7.80;99.90
285;DHT22;127;48.770;9.212;2022-12-18T08:41:10;-7.70;99.90
285;DHT22;127;48.770;9.212;2022-12-18T08:43:39;-7.60;99.90
285;DHT22;127;48.770;9.212;2022-12-18T08:46:22;-7.50;99.90
285;DHT22;127;48.770;9.212;2022-12-18T08:48:51;-7.40;99.90
285;DHT22;127;48.770;9.212;2022-12-18T08:51:23;-7.30;99.90
285;DHT22;127;48.770;9.212;2022-12-18T08:53:51;-7.20;99.90
285;DHT22;127;48.770;9.212;2022-12-18T08:56:20;-7.20;99.90
285;DHT22;127;48.770;9.212;2022-12-18T08:58:51;-7.10;99.90
285;DHT22;127;48.770;9.212;2022-12-18T09:01:21;-7.10;99.90
285;DHT22;127;48.770;9.212;2022-12-18T09:03:50;-7.00;99.90
285;DHT22;127;48.770;9.212;2022-12-18T09:06:22;-6.90;99.90
285;DHT22;127;48.770;9.212;2022-12-18T09:08:52;-6.90;99.90
285;DHT22;127;48.770;9.212;2022-12-18T09:11:22;-6.70;99.90
285;DHT22;127;48.770;9.212;2022-12-18T09:13:52;-6.60;99.90
285;DHT22;127;48.770;9.212;2022-12-18T09:16:22;-6.60;99.90
285;DHT22;127;48.770;9.212;2022-12-18T09:18:50;-6.50;99.90
285;DHT22;127;48.770;9.212;2022-12-18T09:21:29;-6.40;99.90
285;DHT22;127;48.770;9.212;2022-12-18T09:23:58;-6.40;99.90
285;DHT22;127;48.770;9.212;2022-12-18T09:26:27;-6.30;99.90
285;DHT22;127;48.770;9.212;2022-12-18T09:28:56;-6.10;99.90
285;DHT22;127;48.770;9.212;2022-12-18T09:31:25;-6.00;99.90
285;DHT22;127;48.770;9.212;2022-12-18T09:33:55;-5.80;99.90
285;DHT22;127;48.770;9.212;2022-12-18T09:36:23;-5.70;99.90
285;DHT22;127;48.770;9.212;2022-12-18T09:38:54;-5.70;99.90
285;DHT22;127;48.770;9.212;2022-12-18T09:41:37;-5.80;99.90
285;DHT22;127;48.770;9.212;2022-12-18T09:44:14;-5.80;99.90
285;DHT22;127;48.770;9.212;2022-12-18T09:46:49;-5.80;99.90
285;DHT22;127;48.770;9.212;2022-12-18T09:49:22;-5.90;99.90
285;DHT22;127;48.770;9.212;2022-12-18T09:51:55;-5.80;99.90
285;DHT22;127;48.770;9.212;2022-12-18T09:54:33;-5.20;99.90
285;DHT22;127;48.770;9.212;2022-12-18T09:57:03;-4.50;99.90
285;DHT22;127;48.770;9.212;2022-12-18T09:59:36;-4.00;99.90
285;DHT22;127;48.770;9.212;2022-12-18T10:02:14;-3.90;99.90
285;DHT22;127;48.770;9.212;2022-12-18T10:04:43;-3.90;99.90
285;DHT22;127;48.770;9.212;2022-12-18T10:07:20;-4.10;99.90
285;DHT22;127;48.770;9.212;2022-12-18T10:10:02;-4.20;99.90
285;DHT22;127;48.770;9.212;2022-12-18T10:12:39;-4.40;99.90
285;DHT22;127;48.770;9.212;2022-12-18T10:15:19;-4.50;99.90
285;DHT22;127;48.770;9.212;2022-12-18T10:17:53;-4.80;99.90
285;DHT22;127;48.770;9.212;2022-12-18T10:20:32;-4.20;99.90
285;DHT22;127;48.770;9.212;2022-12-18T10:23:08;-3.40;99.90
285;DHT22;127;48.770;9.212;2022-12-18T10:25:50;-2.50;99.90
285;DHT22;127;48.770;9.212;2022-12-18T10:28:22;-2.10;99.90
285;DHT22;127;48.770;9.212;2022-12-18T10:30:51;-2.10;99.90
285;DHT22;127;48.770;9.212;2022-12-18T10:33:23;-1.50;99.90
285;DHT22;127;48.770;9.212;2022-12-18T10:35:52;-1.20;99.90
285;DHT22;127;48.770;9.212;2022-12-18T10:38:24;-1.00;99.90
285;DHT22;127;48.770;9.212;2022-12-18T10:40:57;-1.00;99.90
285;DHT22;127;48.770;9.212;2022-12-18T10:43:28;-1.00;99.90
285;DHT22;127;48.770;9.212;2022-12-18T10:46:04;-1.20;99.90
285;DHT22;127;48.770;9.212;2022-12-18T10:48:36;-1.80;99.90
285;DHT22;127;48.770;9.212;2022-12-18T10:51:08;-1.70;99.90
285;DHT22;127;48.770;9.212;2022-12-18T10:53:37;-1.90;99.90
285;DHT22;127;48.770;9.212;2022-12-18T10:56:08;-1.90;99.90
285;DHT22;127;48.770;9.212;2022-12-18T10:58:38;-1.60;99.90
285;DHT22;127;48.770;9.212;2022-12-18T11:01:10;-1.30;99.90
285;DHT22;127;48.770;9.212;2022-12-18T11:03:41;-0.90;99.90
285;DHT22;127;48.770;9.212;2022-12-18T11:06:12;-0.50;99.90
285;DHT22;127;48.770;9.212;2022-12-18T11:08:42;-0.20;99.90
285;DHT22;127;48.770;9.212;2022-12-18T11:11:21;0.40;99.90
285;DHT22;127;48.770;9.212;2022-12-18T11:13:58;1.00;99.90
285;DHT22;127;48.770;9.212;2022-12-18T11:16:28;1.80;99.90
285;DHT22;127;48.770;9.212;2022-12-18T11:19:11;1.70;99.90
285;DHT22;127;48.770;9.212;2022-12-18T11:21:42;2.30;99.90
285;DHT22;127;48.770;9.212;2022-12-18T11:24:20;3.00;99.90
285;DHT22;127;48.770;9.212;2022-12-18T11:26:52;3.70;99.90
285;DHT22;127;48.770;9.212;2022-12-18T11:29:27;4.10;99.90
285;DHT22;127;48.770;9.212;2022-12-18T11:32:20;4.80;99.90
285;DHT22;127;48.770;9.212;2022-12-18T11:34:54;6.10;99.90
285;DHT22;127;48.770;9.212;2022-12-18T11:37:27;6.20;99.90
285;DHT22;127;48.770;9.212;2022-12-18T11:39:58;5.80;99.90
285;DHT22;127;48.770;9.212;2022-12-18T11:42:35;6.60;99.90
285;DHT22;127;48.770;9.212;2022-12-18T11:45:23;6.30;99.90
285;DHT22;127;48.770;9.212;2022-12-18T11:47:58;4.70;99.90
285;DHT22;127;48.770;9.212;2022-12-18T11:50:31;5.30;99.90
285;DHT22;127;48.770;9.212;2022-12-18T11:53:02;5.90;99.90
285;DHT22;127;48.770;9.212;2022-12-18T11:55:39;4.60;99.90
285;DHT22;127;48.770;9.212;2022-12-18T11:58:20;4.90;99.90
285;DHT22;127;48.770;9.212;2022-12-18T12:00:58;7.10;99.90
285;DHT22;127;48.770;9.212;2022-12-18T12:03:45;8.60;99.90
285;DHT22;127;48.770;9.212;2022-12-18T12:06:21;8.00;99.90
285;DHT22;127;48.770;9.212;2022-12-18T12:09:02;7.00;99.90
285;DHT22;127;48.770;9.212;2022-12-18T12:11:43;7.40;99.90
285;DHT22;127;48.770;9.212;2022-12-18T12:14:29;7.30;99.90
285;DHT22;127;48.770;9.212;2022-12-18T12:17:07;6.90;99.90
285;DHT22;127;48.770;9.212;2022-12-18T12:19:46;4.70;99.90
285;DHT22;127;48.770;9.212;2022-12-18T12:22:24;4.40;99.90
285;DHT22;127;48.770;9.212;2022-12-18T12:25:18;4.90;99.90
285;DHT22;127;48.770;9.212;2022-12-18T12:27:55;5.50;99.90
285;DHT22;127;48.770;9.212;2022-12-18T12:30:34;5.60;99.90
285;DHT22;127;48.770;9.212;2022-12-18T12:33:17;5.70;99.90
285;DHT22;127;48.770;9.212;2022-12-18T12:35:52;4.80;99.90
285;DHT22;127;48.770;9.212;2022-12-18T12:38:28;4.20;99.90
285;DHT22;127;48.770;9.212;2022-12-18T12:41:00;4.60;99.90
285;DHT22;127;48.770;9.212;2022-12-18T12:43:35;4.30;99.90
285;DHT22;127;48.770;9.212;2022-12-18T12:46:09;4.10;99.90
285;DHT22;127;48.770;9.212;2022-12-18T12:48:42;4.10;99.90
285;DHT22;127;48.770;9.212;2022-12-18T12:51:16;4.20;99.90
285;DHT22;127;48.770;9.212;2022-12-18T12:53:45;3.10;99.90
285;DHT22;127;48.770;9.212;2022-12-18T12:56:16;3.50;99.90
285;DHT22;127;48.770;9.212;2022-12-18T12:58:57;3.80;99.90
285;DHT22;127;48.770;9.212;2022-12-18T13:01:36;4.10;99.90
285;DHT22;127;48.770;9.212;2022-12-18T13:04:16;3.80;99.90
285;DHT22;127;48.770;9.212;2022-12-18T13:06:50;3.30;99.90
285;DHT22;127;48.770;9.212;2022-12-18T13:09:22;3.80;99.90
285;DHT22;127;48.770;9.212;2022-12-18T13:11:50;2.80;99.90
285;DHT22;127;48.770;9.212;2022-12-18T13:14:33;3.70;99.90
285;DHT22;127;48.770;9.212;2022-12-18T13:17:29;3.30;99.90
285;DHT22;127;48.770;9.212;2022-12-18T13:20:12;4.00;99.90
285;DHT22;127;48.770;9.212;2022-12-18T13:22:43;3.70;99.90
285;DHT22;127;48.770;9.212;2022-12-18T13:25:32;4.20;99.90
285;DHT22;127;48.770;9.212;2022-12-18T13:28:09;3.30;99.90
285;DHT22;127;48.770;9.212;2022-12-18T13:30:47;2.80;99.90
285;DHT22;127;48.770;9.212;2022-12-18T13:33:41;2.80;99.90
285;DHT22;127;48.770;9.212;2022-12-18T13:36:16;3.60;99.90
285;DHT22;127;48.770;9.212;2022-12-18T13:38:45;2.50;99.90
285;DHT22;127;48.770;9.212;2022-12-18T13:41:25;2.40;99.90
285;DHT22;127;48.770;9.212;2022-12-18T13:43:55;3.00;99.90
285;DHT22;127;48.770;9.212;2022-12-18T13:46:27;2.80;99.90
285;DHT22;127;48.770;9.212;2022-12-18T13:49:01;3.10;99.90
285;DHT22;127;48.770;9.212;2022-12-18T13:51:33;3.10;99.90
285;DHT22;127;48.770;9.212;2022-12-18T13:54:12;3.50;99.90
285;DHT22;127;48.770;9.212;2022-12-18T13:56:44;3.90;99.90
285;DHT22;127;48.770;9.212;2022-12-18T13:59:16;3.30;99.90
285;DHT22;127;48.770;9.212;2022-12-18T14:01:47;3.10;99.90
285;DHT22;127;48.770;9.212;2022-12-18T14:04:30;2.80;99.90
285;DHT22;127;48.770;9.212;2022-12-18T14:07:06;3.30;99.90
285;DHT22;127;48.770;9.212;2022-12-18T14:09:37;3.50;99.90
285;DHT22;127;48.770;9.212;2022-12-18T14:12:15;2.90;99.90
285;DHT22;127;48.770;9.212;2022-12-18T14:14:57;2.80;99.90
285;DHT22;127;48.770;9.212;2022-12-18T14:17:26;2.30;99.90
285;DHT22;127;48.770;9.212;2022-12-18T14:19:58;2.40;99.90
285;DHT22;127;48.770;9.212;2022-12-18T14:22:27;1.40;99.90
285;DHT22;127;48.770;9.212;2022-12-18T14:25:13;1.20;99.90
285;DHT22;127;48.770;9.212;2022-12-18T14:27:44;0.50;99.90
285;DHT22;127;48.770;9.212;2022-12-18T14:30:26;-0.20;99.90
285;DHT22;127;48.770;9.212;2022-12-18T14:33:08;-0.50;99.90
285;DHT22;127;48.770;9.212;2022-12-18T14:35:42;-0.60;99.90
285;DHT22;127;48.770;9.212;2022-12-18T14:38:21;-0.60;99.90
285;DHT22;127;48.770;9.212;2022-12-18T14:41:03;-0.80;99.90
285;DHT22;127;48.770;9.212;2022-12-18T14:43:33;-1.00;99.90
285;DHT22;127;48.770;9.212;2022-12-18T14:46:03;-1.10;99.90
285;DHT22;127;48.770;9.212;2022-12-18T14:48:36;-1.00;99.90
285;DHT22;127;48.770;9.212;2022-12-18T14:51:15;-0.90;99.90
285;DHT22;127;48.770;9.212;2022-12-18T14:53:46;-1.20;99.90
285;DHT22;127;48.770;9.212;2022-12-18T14:56:18;-1.30;99.90
285;DHT22;127;48.770;9.212;2022-12-18T14:58:49;-1.50;99.90
285;DHT22;127;48.770;9.212;2022-12-18T15:01:24;-1.50;99.90
285;DHT22;127;48.770;9.212;2022-12-18T15:03:54;-1.70;99.90
285;DHT22;127;48.770;9.212;2022-12-18T15:06:31;-2.00;99.90
285;DHT22;127;48.770;9.212;2022-12-18T15:09:02;-2.30;99.90
285;DHT22;127;48.770;9.212;2022-12-18T15:11:43;-2.40;99.90
285;DHT22;127;48.770;9.212;2022-12-18T15:14:30;-2.60;99.90
285;DHT22;127;48.770;9.212;2022-12-18T15:17:02;-2.80;99.90
285;DHT22;127;48.770;9.212;2022-12-18T15:19:35;-2.90;99.90
285;DHT22;127;48.770;9.212;2022-12-18T15:22:18;-3.00;99.90
285;DHT22;127;48.770;9.212;2022-12-18T15:24:48;-3.10;99.90
285;DHT22;127;48.770;9.212;2022-12-18T15:27:31;-3.30;99.90
285;DHT22;127;48.770;9.212;2022-12-18T15:30:22;-3.30;99.90
285;DHT22;127;48.770;9.212;2022-12-18T15:32:52;-3.40;99.90
285;DHT22;127;48.770;9.212;2022-12-18T15:35:22;-3.50;99.90
285;DHT22;127;48.770;9.212;2022-12-18T15:37:54;-3.60;99.90
285;DHT22;127;48.770;9.212;2022-12-18T15:40:23;-3.60;99.90
285;DHT22;127;48.770;9.212;2022-12-18T15:42:54;-3.60;99.90
285;DHT22;127;48.770;9.212;2022-12-18T15:45:47;-3.50;99.90
285;DHT22;127;48.770;9.212;2022-12-18T15:48:20;-3.60;99.90
285;DHT22;127;48.770;9.212;2022-12-18T15:50:50;-3.80;99.90
285;DHT22;127;48.770;9.212;2022-12-18T15:53:24;-3.80;99.90
285;DHT22;127;48.770;9.212;2022-12-18T15:55:53;-3.80;99.90
285;DHT22;127;48.770;9.212;2022-12-18T15:58:34;-3.80;99.90
285;DHT22;127;48.770;9.212;2022-12-18T16:01:03;-3.70;99.90
285;DHT22;127;48.770;9.212;2022-12-18T16:03:31;-3.80;99.90
285;DHT22;127;48.770;9.212;2022-12-18T16:06:00;-3.80;99.90
285;DHT22;127;48.770;9.212;2022-12-18T16:08:31;-3.90;99.90
285;DHT22;127;48.770;9.212;2022-12-18T16:11:01;-4.00;99.90
285;DHT22;127;48.770;9.212;2022-12-18T16:13:29;-3.90;99.90
285;DHT22;127;48.770;9.212;2022-12-18T16:15:58;-4.00;99.90
285;DHT22;127;48.770;9.212;2022-12-18T16:18:27;-4.00;99.90
285;DHT22;127;48.770;9.212;2022-12-18T16:20:55;-4.00;99.90
285;DHT22;127;48.770;9.212;2022-12-18T16:23:24;-3.90;99.90
285;DHT22;127;48.770;9.212;2022-12-18T16:25:55;-3.90;99.90
285;DHT22;127;48.770;9.212;2022-12-18T16:28:24;-4.00;99.90
285;DHT22;127;48.770;9.212;2022-12-18T16:30:52;-3.90;99.90
285;DHT22;127;48.770;9.212;2022-12-18T16:33:21;-4.00;99.90
285;DHT22;127;48.770;9.212;2022-12-18T16:35:52;-4.00;99.90
285;DHT22;127;48.770;9.212;2022-12-18T16:38:20;-3.90;99.90
285;DHT22;127;48.770;9.212;2022-12-18T16:40:49;-4.10;99.90
285;DHT22;127;48.770;9.212;2022-12-18T16:43:32;-4.00;99.90
285;DHT22;127;48.770;9.212;2022-12-18T16:46:01;-4.00;99.90
285;DHT22;127;48.770;9.212;2022-12-18T16:48:30;-3.90;99.90
285;DHT22;127;48.770;9.212;2022-12-18T16:51:01;-4.00;99.90
285;DHT22;127;48.770;9.212;2022-12-18T16:53:30;-4.00;99.90
285;DHT22;127;48.770;9.212;2022-12-18T16:55:59;-4.00;99.90
285;DHT22;127;48.770;9.212;2022-12-18T16:58:28;-4.00;99.90
285;DHT22;127;48.770;9.212;2022-12-18T17:00:59;-4.00;99.90
285;DHT22;127;48.770;9.212;2022-12-18T17:03:28;-3.90;99.90
285;DHT22;127;48.770;9.212;2022-12-18T17:06:01;-3.90;99.90
285;DHT22;127;48.770;9.212;2022-12-18T17:08:30;-3.90;99.90
285;DHT22;127;48.770;9.212;2022-12-18T17:11:03;-3.90;99.90